Time;durP1;ratioP1;P1;durP2;ratioP2;P2;SDS_P1;SDS_P2;PMS_P1;PMS_P2;Temp;Humidity;BMP_temperature;BMP_pressure;BME280_temperature;BME280_humidity;BME280_pressure;Samples;Min_cycle;Max_cycle;Signal;HPM_P1;HPM_P2
2022/11/05 00:18:41;;;;;;;46.35;23.65;;;;;;;;;;12830295;23;20076;-76
2022/11/05 00:28:59;;;;;;;;;;;;;;;;;;12813033;23;19994;-74
2022/11/05 00:34:00;;;;;;;49.33;22.80;;;;;;;;;;12805369;23;19904;-73
2022/11/05 00:39:00;;;;;;;51.92;23.75;;;;;;;;;;12762523;23;20067;-75
2022/11/05 00:49:31;;;;;;;;;;;;;;;;;;12810685;23;20445;-75
2022/11/05 00:54:32;;;;;;;51.53;21.40;;;;;;;;;;12810739;23;19912;-81
2022/11/05 00:59:32;;;;;;;51.92;21.98;;;;;;;;;;12763305;23;19989;-76
2022/11/05 01:04:32;;;;;;;52.80;22.55;;;;;;;;;;12763600;23;20492;-73
2022/11/05 01:09:32;;;;;;;47.83;22.55;;;;;;;;;;12762283;23;20079;-80
2022/11/05 01:14:33;;;;;;;57.05;24.52;;;;;;;;;;12766085;23;19993;-76
2022/11/05 01:19:34;;;;;;;45.55;24.85;;;;;;;;;;12804427;23;20043;-75
2022/11/05 01:24:34;;;;;;;49.97;23.83;;;;;;;;;;12762300;23;20039;-77
2022/11/05 01:29:34;;;;;;;50.78;24.58;;;;;;;;;;12763116;23;19989;-80
2022/11/05 01:34:35;;;;;;;45.17;22.03;;;;;;;;;;12762316;23;20517;-80
2022/11/05 01:39:35;;;;;;;44.20;23.52;;;;;;;;;;12802421;23;20327;-84
2022/11/05 01:44:51;;;;;;;52.85;24.70;;;;;;;;;;12761379;23;20001;-75
2022/11/05 01:49:52;;;;;;;56.95;24.77;;;;;;;;;;12810194;23;20406;-82
2022/11/05 01:54:52;;;;;;;52.83;23.77;;;;;;;;;;12823653;23;20003;-75
2022/11/05 01:59:55;;;;;;;52.13;25.08;;;;;;;;;;12872399;23;20051;-73
2022/11/05 02:05:01;;;;;;;53.83;22.98;;;;;;;;;;12823408;23;20389;-76
2022/11/05 02:10:05;;;;;;;46.80;25.20;;;;;;;;;;12824058;23;20001;-75
2022/11/05 02:15:09;;;;;;;46.30;22.27;;;;;;;;;;12823413;23;20076;-74
2022/11/05 02:20:24;;;;;;;54.63;24.17;;;;;;;;;;12822997;23;19993;-77
2022/11/05 02:25:34;;;;;;;48.25;23.98;;;;;;;;;;12823432;23;19993;-78
2022/11/05 02:30:38;;;;;;;48.55;22.90;;;;;;;;;;12871691;23;19997;-75
2022/11/05 02:35:51;;;;;;;58.70;25.38;;;;;;;;;;12823869;23;20008;-76
2022/11/05 02:41:12;;;;;;;48.92;25.60;;;;;;;;;;12877266;23;19993;-74
2022/11/05 02:46:19;;;;;;;56.72;25.15;;;;;;;;;;12878229;23;20444;-74
2022/11/05 02:51:29;;;;;;;54.75;24.05;;;;;;;;;;12779433;23;20005;-73
2022/11/05 02:56:34;;;;;;;52.85;25.77;;;;;;;;;;12816385;23;20068;-80
2022/11/05 03:01:35;;;;;;;56.60;25.60;;;;;;;;;;12809135;23;19997;-74
2022/11/05 03:06:54;;;;;;;50.58;25.60;;;;;;;;;;12737153;23;20075;-74
2022/11/05 03:11:57;;;;;;;53.90;24.90;;;;;;;;;;12760937;23;20458;-74
2022/11/05 03:17:16;;;;;;;52.67;24.13;;;;;;;;;;12761177;23;19996;-79
2022/11/05 03:22:19;;;;;;;50.28;23.17;;;;;;;;;;12764723;23;20461;-76
2022/11/05 03:27:25;;;;;;;59.67;25.20;;;;;;;;;;12812000;23;20063;-73
2022/11/05 03:32:27;;;;;;;60.85;25.75;;;;;;;;;;12764633;23;20080;-75
2022/11/05 03:37:30;;;;;;;54.58;25.67;;;;;;;;;;12811453;23;19990;-80
2022/11/05 03:42:31;;;;;;;55.10;26.77;;;;;;;;;;12765331;23;20007;-75
2022/11/05 03:47:35;;;;;;;52.33;25.60;;;;;;;;;;12763887;23;20045;-77
2022/11/05 03:52:38;;;;;;;56.42;25.08;;;;;;;;;;12763829;23;20059;-77
2022/11/05 03:57:40;;;;;;;55.85;24.95;;;;;;;;;;12814847;23;19992;-80
2022/11/05 04:02:40;;;;;;;47.50;25.45;;;;;;;;;;12769236;23;20001;-76
2022/11/05 04:18:19;;;;;;;51.15;24.77;;;;;;;;;;12810683;23;19993;-76
2022/11/05 04:33:57;;;;;;;54.90;24.52;;;;;;;;;;12810478;23;20509;-75
2022/11/05 04:38:57;;;;;;;47.45;23.52;;;;;;;;;;12763042;23;19989;-74
2022/11/05 04:43:57;;;;;;;52.50;21.33;;;;;;;;;;12763167;23;20008;-76
2022/11/05 04:48:58;;;;;;;52.95;23.15;;;;;;;;;;12809919;23;20019;-75
2022/11/05 04:53:58;;;;;;;47.28;22.25;;;;;;;;;;12810154;23;19997;-78
2022/11/05 04:58:58;;;;;;;53.10;22.25;;;;;;;;;;12764018;23;20016;-76
2022/11/05 05:03:58;;;;;;;46.28;22.92;;;;;;;;;;12763475;23;19997;-80
2022/11/05 05:08:59;;;;;;;51.35;22.50;;;;;;;;;;12764788;23;20357;-77
2022/11/05 05:13:59;;;;;;;52.03;24.85;;;;;;;;;;12763389;23;20425;-76
2022/11/05 05:18:59;;;;;;;50.85;24.90;;;;;;;;;;12784607;23;20047;-71
2022/11/05 05:24:00;;;;;;;46.08;20.85;;;;;;;;;;12833958;23;20001;-79
2022/11/05 05:29:00;;;;;;;57.28;25.30;;;;;;;;;;12815919;23;20515;-75
2022/11/05 05:34:00;;;;;;;50.58;25.75;;;;;;;;;;12809998;23;20009;-77
2022/11/05 05:39:03;;;;;;;60.57;23.40;;;;;;;;;;12760070;23;19993;-78
2022/11/05 05:44:04;;;;;;;54.35;26.02;;;;;;;;;;12760458;23;20235;-78
2022/11/05 05:49:05;;;;;;;60.60;24.77;;;;;;;;;;12796281;23;20016;-77
2022/11/05 05:54:05;;;;;;;49.25;22.27;;;;;;;;;;12761450;23;20464;-79
2022/11/05 05:59:05;;;;;;;46.78;22.33;;;;;;;;;;12760128;23;19989;-76
2022/11/05 06:04:06;;;;;;;46.60;22.20;;;;;;;;;;12807639;23;19993;-80
2022/11/05 06:09:06;;;;;;;42.42;21.33;;;;;;;;;;12757508;23;20059;-76
2022/11/05 06:14:11;;;;;;;45.05;20.58;;;;;;;;;;12757338;23;20084;-78
2022/11/05 06:19:11;;;;;;;41.90;21.13;;;;;;;;;;12759823;23;20012;-73
2022/11/05 06:24:11;;;;;;;43.15;19.73;;;;;;;;;;12762125;23;20102;-78
2022/11/05 06:29:12;;;;;;;47.37;21.43;;;;;;;;;;12761279;23;20024;-75
2022/11/05 06:34:12;;;;;;;36.87;18.80;;;;;;;;;;12763717;23;20004;-74
2022/11/05 06:39:12;;;;;;;38.53;19.47;;;;;;;;;;12762663;23;20349;-75
2022/11/05 06:44:13;;;;;;;33.08;16.92;;;;;;;;;;12761746;23;20397;-78
2022/11/05 06:49:14;;;;;;;36.80;17.95;;;;;;;;;;12803724;23;20465;-76
2022/11/05 06:54:14;;;;;;;42.05;17.63;;;;;;;;;;12824504;23;20449;-75
2022/11/05 06:59:15;;;;;;;49.88;19.08;;;;;;;;;;12874998;23;19999;-78
2022/11/05 07:04:15;;;;;;;44.55;18.10;;;;;;;;;;12802606;23;19995;-75
2022/11/05 07:09:15;;;;;;;37.35;19.05;;;;;;;;;;12826645;23;20023;-74
2022/11/05 07:14:16;;;;;;;39.60;17.73;;;;;;;;;;12825995;23;20603;-77
2022/11/05 07:19:16;;;;;;;36.10;18.02;;;;;;;;;;12875251;23;20439;-79
2022/11/05 07:24:17;;;;;;;35.05;17.23;;;;;;;;;;12802052;23;20000;-76
2022/11/05 07:29:17;;;;;;;38.63;17.13;;;;;;;;;;12846868;23;20484;-76
2022/11/05 07:34:17;;;;;;;32.55;19.13;;;;;;;;;;12826098;23;19997;-81
2022/11/05 07:39:17;;;;;;;40.88;18.35;;;;;;;;;;12826801;23;19989;-77
2022/11/05 07:44:18;;;;;;;36.15;17.50;;;;;;;;;;12826679;23;20050;-76
2022/11/05 07:49:18;;;;;;;39.10;18.23;;;;;;;;;;12828847;23;20078;-82
2022/11/05 07:54:18;;;;;;;36.25;19.15;;;;;;;;;;12849278;23;20027;-72
2022/11/05 07:59:18;;;;;;;32.63;16.85;;;;;;;;;;12848789;23;19993;-74
2022/11/05 08:04:19;;;;;;;39.03;18.35;;;;;;;;;;12844342;23;20000;-74
2022/11/05 08:09:20;;;;;;;40.25;18.30;;;;;;;;;;12882183;23;19993;-77
2022/11/05 08:14:20;;;;;;;40.97;19.00;;;;;;;;;;12875310;23;20348;-74
2022/11/05 08:19:20;;;;;;;43.72;18.27;;;;;;;;;;12827705;23;20601;-74
2022/11/05 08:24:20;;;;;;;34.53;19.55;;;;;;;;;;12833908;23;20429;-78
2022/11/05 08:29:21;;;;;;;42.38;19.27;;;;;;;;;;12821972;23;20022;-75
2022/11/05 08:34:21;;;;;;;37.58;18.45;;;;;;;;;;12823707;23;20008;-78
2022/11/05 08:39:21;;;;;;;41.83;19.45;;;;;;;;;;12826074;23;20035;-74
2022/11/05 08:44:21;;;;;;;55.95;20.27;;;;;;;;;;12828793;23;20344;-74
2022/11/05 08:49:22;;;;;;;47.20;19.20;;;;;;;;;;12829801;23;20025;-78
2022/11/05 08:54:23;;;;;;;35.92;17.48;;;;;;;;;;12826234;23;20036;-76
2022/11/05 08:59:24;;;;;;;25.88;14.82;;;;;;;;;;12823877;23;19989;-77
2022/11/05 09:04:24;;;;;;;31.93;13.60;;;;;;;;;;12824424;23;20084;-76
2022/11/05 09:09:24;;;;;;;28.80;15.25;;;;;;;;;;12825105;23;19997;-78
2022/11/05 09:14:25;;;;;;;32.22;13.10;;;;;;;;;;12824405;23;20007;-74
2022/11/05 09:19:26;;;;;;;30.17;13.23;;;;;;;;;;12871744;23;20012;-75
2022/11/05 09:24:26;;;;;;;28.42;14.20;;;;;;;;;;12824489;23;20495;-74
2022/11/05 09:29:27;;;;;;;37.35;16.15;;;;;;;;;;12823526;23;19993;-75
2022/11/05 09:34:27;;;;;;;32.60;15.05;;;;;;;;;;12824049;23;20008;-77
2022/11/05 09:39:27;;;;;;;35.70;13.63;;;;;;;;;;12823984;23;19988;-75
2022/11/05 09:44:48;;;;;;;26.08;14.13;;;;;;;;;;12840812;23;19993;-77
2022/11/05 09:49:49;;;;;;;33.40;13.85;;;;;;;;;;12820219;23;20469;-78
2022/11/05 09:54:50;;;;;;;31.00;12.75;;;;;;;;;;12821005;23;19996;-78
2022/11/05 09:59:51;;;;;;;28.73;13.80;;;;;;;;;;12868729;23;20408;-74
2022/11/05 10:04:54;;;;;;;29.90;13.50;;;;;;;;;;12820934;23;20072;-78
2022/11/05 10:09:59;;;;;;;29.17;12.00;;;;;;;;;;12820918;23;19989;-77
2022/11/05 10:15:15;;;;;;;23.90;12.60;;;;;;;;;;12868837;23;20451;-74
2022/11/05 10:20:35;;;;;;;23.60;13.82;;;;;;;;;;12820413;23;20418;-78
2022/11/05 10:25:38;;;;;;;22.70;11.60;;;;;;;;;;12820589;23;19989;-79
2022/11/05 10:30:38;;;;;;;23.45;11.35;;;;;;;;;;12821491;23;20000;-77
2022/11/05 10:35:45;;;;;;;25.65;11.70;;;;;;;;;;12870665;23;20380;-79
2022/11/05 10:40:51;;;;;;;26.70;12.38;;;;;;;;;;12822977;23;20059;-78
2022/11/05 11:01:38;;;;;;;30.08;12.07;;;;;;;;;;12940695;22;1309553;-77
2022/11/05 11:06:42;;;;;;;26.20;12.50;;;;;;;;;;12967725;22;20011;-77
2022/11/05 11:11:43;;;;;;;27.80;11.85;;;;;;;;;;13015544;22;20553;-77
2022/11/05 11:16:44;;;;;;;29.00;11.48;;;;;;;;;;12966482;22;19996;-77
2022/11/05 11:21:45;;;;;;;23.92;11.80;;;;;;;;;;13015913;22;19988;-80
2022/11/05 11:26:45;;;;;;;25.83;11.35;;;;;;;;;;13014638;22;20450;-74
2022/11/05 11:31:45;;;;;;;31.50;12.73;;;;;;;;;;12967144;22;20427;-78
2022/11/05 11:36:47;;;;;;;22.30;11.43;;;;;;;;;;12967723;22;20226;-78
2022/11/05 11:41:52;;;;;;;22.23;11.45;;;;;;;;;;12996716;22;19999;-79
2022/11/05 11:46:55;;;;;;;25.70;12.20;;;;;;;;;;13030730;22;20027;-77
2022/11/05 11:52:02;;;;;;;26.73;12.30;;;;;;;;;;13031603;22;19994;-79
2022/11/05 11:57:02;;;;;;;24.50;11.35;;;;;;;;;;13038306;22;20011;-79
2022/11/05 12:02:15;;;;;;;21.47;11.90;;;;;;;;;;13027301;22;19991;-73
2022/11/05 12:07:34;;;;;;;26.95;11.70;;;;;;;;;;13056015;22;20250;-75
2022/11/05 12:12:43;;;;;;;22.73;11.20;;;;;;;;;;13018362;22;20029;-77
2022/11/05 12:17:49;;;;;;;33.28;12.35;;;;;;;;;;13013747;22;20038;-77
2022/11/05 12:22:56;;;;;;;27.55;12.82;;;;;;;;;;13013049;22;19998;-79
2022/11/05 12:27:59;;;;;;;24.00;12.05;;;;;;;;;;13013248;22;19996;-73
2022/11/05 12:32:59;;;;;;;25.02;11.95;;;;;;;;;;13012611;22;19998;-74
2022/11/05 12:38:15;;;;;;;22.90;11.10;;;;;;;;;;13012477;22;20430;-81
2022/11/05 12:43:18;;;;;;;24.05;10.48;;;;;;;;;;13045764;22;19995;-76
2022/11/05 12:48:29;;;;;;;26.08;11.15;;;;;;;;;;13012397;22;20429;-76
2022/11/05 12:53:33;;;;;;;24.23;11.50;;;;;;;;;;13012365;22;19988;-73
2022/11/05 12:58:39;;;;;;;31.40;12.13;;;;;;;;;;13012398;22;20023;-74
2022/11/05 13:03:43;;;;;;;17.45;10.38;;;;;;;;;;13012921;22;19995;-78
2022/11/05 13:08:49;;;;;;;23.30;10.38;;;;;;;;;;13012277;22;20399;-74
2022/11/05 13:13:52;;;;;;;23.90;10.80;;;;;;;;;;13061280;22;19994;-75
2022/11/05 13:18:55;;;;;;;32.50;11.02;;;;;;;;;;13012203;22;20454;-75
2022/11/05 13:24:02;;;;;;;22.88;10.32;;;;;;;;;;13060736;22;20003;-79
2022/11/05 13:29:14;;;;;;;24.50;10.52;;;;;;;;;;13060997;22;20031;-74
2022/11/05 13:34:14;;;;;;;24.73;11.45;;;;;;;;;;13011730;22;19994;-82
2022/11/05 13:39:23;;;;;;;23.93;12.70;;;;;;;;;;13011710;22;20464;-75
2022/11/05 13:44:29;;;;;;;29.52;13.07;;;;;;;;;;13011760;22;20082;-75
2022/11/05 13:49:41;;;;;;;32.97;14.95;;;;;;;;;;13011631;22;20018;-76
2022/11/05 13:54:48;;;;;;;28.63;12.88;;;;;;;;;;13010985;22;20017;-74
2022/11/05 13:59:54;;;;;;;28.50;11.70;;;;;;;;;;13043765;22;20107;-81
2022/11/05 14:05:02;;;;;;;25.23;11.85;;;;;;;;;;13011635;22;20074;-83
2022/11/05 14:10:13;;;;;;;29.40;13.02;;;;;;;;;;13012023;22;20003;-75
2022/11/05 14:15:20;;;;;;;23.63;10.45;;;;;;;;;;13011043;22;20415;-75
2022/11/05 14:20:23;;;;;;;27.38;11.95;;;;;;;;;;13056726;22;19995;-81
2022/11/05 14:25:24;;;;;;;30.52;12.30;;;;;;;;;;13054753;22;20431;-79
2022/11/05 14:30:41;;;;;;;26.77;13.00;;;;;;;;;;13010223;22;19999;-75
2022/11/05 14:35:41;;;;;;;28.58;12.80;;;;;;;;;;12985524;22;20319;-75
2022/11/05 14:40:45;;;;;;;35.27;14.67;;;;;;;;;;13010062;22;19999;-79
2022/11/05 14:46:11;;;;;;;31.27;15.07;;;;;;;;;;12985560;22;20317;-77
2022/11/05 14:51:20;;;;;;;32.53;15.57;;;;;;;;;;13030467;22;20014;-82
2022/11/05 14:56:21;;;;;;;37.72;18.75;;;;;;;;;;13057834;22;20006;-74
2022/11/05 15:01:33;;;;;;;41.15;16.98;;;;;;;;;;12972369;22;20023;-74
2022/11/05 15:06:35;;;;;;;33.10;17.15;;;;;;;;;;12994928;22;19991;-77
2022/11/05 15:11:37;;;;;;;38.80;16.50;;;;;;;;;;12972907;22;19988;-77
2022/11/05 15:16:42;;;;;;;34.38;17.23;;;;;;;;;;12974449;22;19995;-77
2022/11/05 15:21:43;;;;;;;37.58;18.42;;;;;;;;;;12973689;22;20023;-75
2022/11/05 15:26:52;;;;;;;36.25;18.08;;;;;;;;;;12972683;22;20004;-75
2022/11/05 15:31:53;;;;;;;32.78;16.50;;;;;;;;;;12977207;22;20057;-78
2022/11/05 15:36:58;;;;;;;28.35;14.93;;;;;;;;;;12978955;22;20006;-77
2022/11/05 15:42:01;;;;;;;34.17;16.83;;;;;;;;;;12989594;22;19995;-79
2022/11/05 15:47:06;;;;;;;38.50;16.30;;;;;;;;;;12999005;22;20335;-78
2022/11/05 15:52:09;;;;;;;35.60;16.40;;;;;;;;;;12975705;22;19991;-75
2022/11/05 15:57:16;;;;;;;46.03;22.67;;;;;;;;;;12982895;22;20088;-78
2022/11/05 16:02:25;;;;;;;40.53;18.35;;;;;;;;;;13014571;22;20426;-77
2022/11/05 16:07:26;;;;;;;34.28;16.58;;;;;;;;;;13012257;22;20011;-74
2022/11/05 16:12:29;;;;;;;36.78;17.42;;;;;;;;;;13061232;22;20040;-77
2022/11/05 16:17:48;;;;;;;37.67;18.02;;;;;;;;;;13063619;22;20342;-77
2022/11/05 16:22:50;;;;;;;39.88;20.02;;;;;;;;;;13056972;22;20465;-76
2022/11/05 16:27:50;;;;;;;40.15;19.52;;;;;;;;;;12986042;22;20003;-78
2022/11/05 16:32:51;;;;;;;51.67;17.98;;;;;;;;;;13012948;22;19987;-79
2022/11/05 16:37:51;;;;;;;42.53;19.00;;;;;;;;;;13011138;22;19995;-79
2022/11/05 16:42:52;;;;;;;47.20;19.67;;;;;;;;;;13061485;22;20117;-78
2022/11/05 16:47:52;;;;;;;38.45;18.75;;;;;;;;;;13012843;22;20006;-76
2022/11/05 16:52:53;;;;;;;37.65;18.50;;;;;;;;;;13012152;22;19997;-80
2022/11/05 16:57:54;;;;;;;37.93;18.27;;;;;;;;;;13013151;22;20084;-79
2022/11/05 17:02:57;;;;;;;36.40;17.23;;;;;;;;;;13013007;22;20423;-80
2022/11/05 17:07:59;;;;;;;36.65;17.55;;;;;;;;;;13010335;22;20003;-79
2022/11/05 17:13:00;;;;;;;34.70;17.00;;;;;;;;;;13057809;22;20061;-81
2022/11/05 17:18:01;;;;;;;41.73;19.60;;;;;;;;;;13009880;22;20496;-82
2022/11/05 17:23:01;;;;;;;29.58;15.73;;;;;;;;;;13010805;22;20066;-78
2022/11/05 17:28:02;;;;;;;30.90;17.13;;;;;;;;;;13010735;22;20003;-78
2022/11/05 17:33:03;;;;;;;31.92;15.77;;;;;;;;;;13011481;22;20024;-75
2022/11/05 17:38:03;;;;;;;34.67;16.80;;;;;;;;;;13009865;22;19995;-75
2022/11/05 17:43:03;;;;;;;36.42;18.90;;;;;;;;;;13010812;22;19991;-80
2022/11/05 17:48:04;;;;;;;41.83;18.65;;;;;;;;;;12986169;22;20351;-81
2022/11/05 17:53:04;;;;;;;36.33;16.08;;;;;;;;;;13010444;22;20041;-77
2022/11/05 17:58:05;;;;;;;31.65;16.55;;;;;;;;;;13051145;22;20543;-77
2022/11/05 18:03:05;;;;;;;27.73;14.43;;;;;;;;;;13069711;22;19991;-81
2022/11/05 18:08:06;;;;;;;43.72;15.90;;;;;;;;;;13052851;22;20014;-74
2022/11/05 18:13:06;;;;;;;32.72;16.17;;;;;;;;;;13089744;22;20516;-73
2022/11/05 18:18:07;;;;;;;32.53;15.48;;;;;;;;;;13070325;22;20074;-75
2022/11/05 18:23:07;;;;;;;34.97;18.13;;;;;;;;;;13063944;22;20010;-75
2022/11/05 18:28:07;;;;;;;44.47;20.67;;;;;;;;;;13009569;22;20397;-76
2022/11/05 18:33:08;;;;;;;36.30;16.63;;;;;;;;;;13011472;22;19995;-81
2022/11/05 18:38:08;;;;;;;35.90;16.77;;;;;;;;;;13021366;22;20307;-77
2022/11/05 18:43:08;;;;;;;34.10;17.07;;;;;;;;;;13027298;22;19995;-75
2022/11/05 18:48:08;;;;;;;32.60;17.10;;;;;;;;;;13074000;22;20727;-76
2022/11/05 18:53:09;;;;;;;39.80;17.42;;;;;;;;;;13035796;22;20011;-79
2022/11/05 18:58:09;;;;;;;29.40;16.85;;;;;;;;;;13012759;22;20015;-76
2022/11/05 19:03:10;;;;;;;36.97;18.33;;;;;;;;;;13052224;22;19988;-75
2022/11/05 19:08:10;;;;;;;38.92;18.83;;;;;;;;;;13053502;22;20074;-79
2022/11/05 19:13:10;;;;;;;38.05;18.42;;;;;;;;;;13013926;22;19991;-78
2022/11/05 19:18:10;;;;;;;38.10;18.83;;;;;;;;;;13013230;22;20022;-78
2022/11/05 19:23:11;;;;;;;36.53;18.70;;;;;;;;;;13015703;22;20003;-75
2022/11/05 19:28:11;;;;;;;39.88;18.27;;;;;;;;;;13013294;22;19996;-76
2022/11/05 19:33:11;;;;;;;33.80;16.83;;;;;;;;;;12988103;22;19999;-77
2022/11/05 19:38:12;;;;;;;40.28;19.38;;;;;;;;;;13015166;22;20453;-76
2022/11/05 19:43:12;;;;;;;41.57;18.33;;;;;;;;;;13062840;22;19994;-78
2022/11/05 19:48:12;;;;;;;41.40;17.67;;;;;;;;;;13013238;22;20078;-78
2022/11/05 19:53:12;;;;;;;37.43;18.20;;;;;;;;;;13013089;22;19995;-73
2022/11/05 19:58:14;;;;;;;39.90;19.70;;;;;;;;;;13013490;22;20027;-76
2022/11/05 20:03:14;;;;;;;31.38;16.92;;;;;;;;;;13014255;22;19991;-75
2022/11/05 20:08:15;;;;;;;36.13;17.27;;;;;;;;;;13014757;22;20525;-77
2022/11/05 20:13:17;;;;;;;32.00;17.65;;;;;;;;;;13013720;22;19983;-76
2022/11/05 20:18:17;;;;;;;37.67;19.00;;;;;;;;;;13011950;22;20022;-75
2022/11/05 20:23:17;;;;;;;48.90;21.83;;;;;;;;;;13063585;22;19987;-79
2022/11/05 20:28:17;;;;;;;36.50;20.17;;;;;;;;;;13013212;22;20014;-75
2022/11/05 20:33:18;;;;;;;36.40;18.92;;;;;;;;;;13013319;22;19991;-74
2022/11/05 20:38:18;;;;;;;34.55;19.38;;;;;;;;;;13062958;22;19999;-81
2022/11/05 20:43:20;;;;;;;33.80;19.13;;;;;;;;;;13015290;22;19991;-75
2022/11/05 20:48:20;;;;;;;34.50;17.15;;;;;;;;;;13029416;22;19995;-71
2022/11/05 20:53:21;;;;;;;38.47;19.20;;;;;;;;;;13037845;22;20423;-73
2022/11/05 20:58:21;;;;;;;37.50;18.73;;;;;;;;;;13027450;22;20344;-79
2022/11/05 21:03:22;;;;;;;36.23;18.30;;;;;;;;;;13046387;22;19991;-75
2022/11/05 21:08:22;;;;;;;37.85;19.42;;;;;;;;;;13074331;22;20004;-74
2022/11/05 21:13:23;;;;;;;43.60;21.17;;;;;;;;;;13063991;22;20073;-76
2022/11/05 21:18:27;;;;;;;38.95;18.23;;;;;;;;;;13014303;22;20022;-75
2022/11/05 21:23:28;;;;;;;41.28;19.58;;;;;;;;;;13013364;22;20006;-77
2022/11/05 21:28:28;;;;;;;36.92;18.40;;;;;;;;;;12988041;22;20006;-75
2022/11/05 21:33:29;;;;;;;38.60;18.70;;;;;;;;;;13013113;22;20013;-78
2022/11/05 21:38:29;;;;;;;38.83;18.97;;;;;;;;;;13014145;22;20049;-71
2022/11/05 21:43:29;;;;;;;38.15;19.73;;;;;;;;;;13013601;22;20073;-75
2022/11/05 21:48:31;;;;;;;42.57;19.60;;;;;;;;;;13012907;22;20041;-78
2022/11/05 22:04:09;;;;;;;36.92;20.58;;;;;;;;;;13084143;22;20438;-78
2022/11/05 22:09:09;;;;;;;42.88;23.40;;;;;;;;;;12993225;22;20003;-76
2022/11/05 22:14:10;;;;;;;46.45;21.10;;;;;;;;;;13013578;22;20002;-75
2022/11/05 22:19:10;;;;;;;43.50;20.95;;;;;;;;;;13013566;22;20076;-74
2022/11/05 22:24:10;;;;;;;50.47;21.80;;;;;;;;;;13062248;22;19998;-76
2022/11/05 22:29:11;;;;;;;46.20;24.25;;;;;;;;;;13013327;22;19995;-75
2022/11/05 22:34:11;;;;;;;45.42;22.88;;;;;;;;;;13013166;22;19998;-77
2022/11/05 22:39:12;;;;;;;51.10;23.67;;;;;;;;;;13062070;22;20066;-76
2022/11/05 22:44:13;;;;;;;43.30;21.55;;;;;;;;;;13034143;22;20247;-74
2022/11/05 22:49:13;;;;;;;47.45;21.23;;;;;;;;;;13034531;22;20328;-76
2022/11/05 22:54:13;;;;;;;43.42;21.92;;;;;;;;;;12988295;22;20426;-77
2022/11/05 22:59:14;;;;;;;42.13;21.40;;;;;;;;;;13013099;22;20023;-75
2022/11/05 23:04:15;;;;;;;39.72;19.13;;;;;;;;;;13061898;22;19999;-69
2022/11/05 23:14:47;;;;;;;51.50;20.55;;;;;;;;;;13063507;22;20007;-78
2022/11/05 23:25:09;;;;;;;40.88;18.20;;;;;;;;;;13063530;22;20591;-77
2022/11/05 23:30:12;;;;;;;45.90;19.17;;;;;;;;;;12994720;22;20468;-75
2022/11/05 23:35:12;;;;;;;43.85;22.20;;;;;;;;;;12990868;22;19995;-78
2022/11/05 23:40:14;;;;;;;44.10;24.50;;;;;;;;;;13075623;22;20038;-76
2022/11/05 23:48:14;;;;;;;55.55;24.65;;;;;;;;;;13029263;22;19995;-78
2022/11/05 23:50:54;;;;;;;46.72;24.60;;;;;;;;;;13041703;22;20050;-77
2022/11/05 23:56:05;;;;;;;42.95;22.65;;;;;;;;;;13016106;22;20457;-79
